sensor_id;sensor_type;location;lat;lon;timestamp;P1;durP1;ratioP1;P2;durP2;ratioP2
20095;SDS011;10207;50.942;6.900;2023-10-08T00:01:18;9.43;;;3.80;;
20095;SDS011;10207;50.942;6.900;2023-10-08T00:03:45;9.07;;;2.90;;
20095;SDS011;10207;50.942;6.900;2023-10-08T00:06:15;6.60;;;2.95;;
20095;SDS011;10207;50.942;6.900;2023-10-08T00:08:41;7.43;;;2.80;;
20095;SDS011;10207;50.942;6.900;2023-10-08T00:11:07;5.78;;;2.50;;
20095;SDS011;10207;50.942;6.900;2023-10-08T00:13:35;6.70;;;3.13;;
20095;SDS011;10207;50.942;6.900;2023-10-08T00:16:06;7.50;;;2.80;;
20095;SDS011;10207;50.942;6.900;2023-10-08T00:18:35;7.80;;;3.08;;
20095;SDS011;10207;50.942;6.900;2023-10-08T00:21:01;8.82;;;2.88;;
20095;SDS011;10207;50.942;6.900;2023-10-08T00:23:36;6.57;;;2.90;;
20095;SDS011;10207;50.942;6.900;2023-10-08T00:26:08;8.48;;;3.20;;
20095;SDS011;10207;50.942;6.900;2023-10-08T00:28:34;8.52;;;2.83;;
20095;SDS011;10207;50.942;6.900;2023-10-08T00:31:02;7.15;;;2.83;;
20095;SDS011;10207;50.942;6.900;2023-10-08T00:33:38;7.72;;;2.70;;
20095;SDS011;10207;50.942;6.900;2023-10-08T00:36:10;5.47;;;2.63;;
20095;SDS011;10207;50.942;6.900;2023-10-08T00:38:46;10.07;;;2.95;;
20095;SDS011;10207;50.942;6.900;2023-10-08T00:41:16;8.55;;;2.95;;
20095;SDS011;10207;50.942;6.900;2023-10-08T00:43:42;6.55;;;2.80;;
20095;SDS011;10207;50.942;6.900;2023-10-08T00:46:10;9.20;;;3.33;;
20095;SDS011;10207;50.942;6.900;2023-10-08T00:48:49;7.97;;;2.90;;
20095;SDS011;10207;50.942;6.900;2023-10-08T00:51:15;8.38;;;2.53;;
20095;SDS011;10207;50.942;6.900;2023-10-08T00:53:47;5.57;;;2.75;;
20095;SDS011;10207;50.942;6.900;2023-10-08T00:56:15;6.18;;;3.05;;
20095;SDS011;10207;50.942;6.900;2023-10-08T00:58:45;9.30;;;3.40;;
20095;SDS011;10207;50.942;6.900;2023-10-08T01:01:18;7.38;;;3.03;;
20095;SDS011;10207;50.942;6.900;2023-10-08T01:03:46;6.43;;;2.80;;
20095;SDS011;10207;50.942;6.900;2023-10-08T01:06:16;5.97;;;2.70;;
20095;SDS011;10207;50.942;6.900;2023-10-08T01:08:44;5.25;;;3.05;;
20095;SDS011;10207;50.942;6.900;2023-10-08T01:11:18;11.70;;;3.28;;
20095;SDS011;10207;50.942;6.900;2023-10-08T01:13:46;8.85;;;2.75;;
20095;SDS011;10207;50.942;6.900;2023-10-08T01:16:12;11.02;;;2.60;;
20095;SDS011;10207;50.942;6.900;2023-10-08T01:18:39;9.52;;;2.95;;
20095;SDS011;10207;50.942;6.900;2023-10-08T01:21:12;6.82;;;3.03;;
20095;SDS011;10207;50.942;6.900;2023-10-08T01:23:48;8.18;;;3.28;;
20095;SDS011;10207;50.942;6.900;2023-10-08T01:26:19;9.32;;;3.17;;
20095;SDS011;10207;50.942;6.900;2023-10-08T01:28:48;6.40;;;2.78;;
20095;SDS011;10207;50.942;6.900;2023-10-08T01:31:14;6.18;;;3.17;;
20095;SDS011;10207;50.942;6.900;2023-10-08T01:33:41;5.18;;;2.78;;
20095;SDS011;10207;50.942;6.900;2023-10-08T01:36:15;6.97;;;2.60;;
20095;SDS011;10207;50.942;6.900;2023-10-08T01:38:41;7.53;;;2.45;;
20095;SDS011;10207;50.942;6.900;2023-10-08T01:41:08;6.57;;;3.00;;
20095;SDS011;10207;50.942;6.900;2023-10-08T01:43:48;10.27;;;3.10;;
20095;SDS011;10207;50.942;6.900;2023-10-08T01:46:15;10.82;;;3.63;;
20095;SDS011;10207;50.942;6.900;2023-10-08T01:48:42;5.82;;;2.85;;
20095;SDS011;10207;50.942;6.900;2023-10-08T01:51:10;7.82;;;3.28;;
20095;SDS011;10207;50.942;6.900;2023-10-08T01:53:37;7.43;;;3.13;;
20095;SDS011;10207;50.942;6.900;2023-10-08T01:56:07;7.45;;;2.65;;
20095;SDS011;10207;50.942;6.900;2023-10-08T01:58:33;6.72;;;3.20;;
20095;SDS011;10207;50.942;6.900;2023-10-08T02:01:01;9.23;;;3.47;;
20095;SDS011;10207;50.942;6.900;2023-10-08T02:03:31;7.40;;;2.72;;
20095;SDS011;10207;50.942;6.900;2023-10-08T02:05:57;7.47;;;3.22;;
20095;SDS011;10207;50.942;6.900;2023-10-08T02:08:25;7.07;;;3.15;;
20095;SDS011;10207;50.942;6.900;2023-10-08T02:10:52;11.68;;;3.55;;
20095;SDS011;10207;50.942;6.900;2023-10-08T02:13:18;9.05;;;3.10;;
20095;SDS011;10207;50.942;6.900;2023-10-08T02:15:45;9.90;;;2.85;;
20095;SDS011;10207;50.942;6.900;2023-10-08T02:18:11;9.15;;;3.97;;
20095;SDS011;10207;50.942;6.900;2023-10-08T02:20:39;9.30;;;3.70;;
20095;SDS011;10207;50.942;6.900;2023-10-08T02:23:05;7.57;;;3.05;;
20095;SDS011;10207;50.942;6.900;2023-10-08T02:25:31;6.95;;;3.25;;
20095;SDS011;10207;50.942;6.900;2023-10-08T02:27:57;5.70;;;2.40;;
20095;SDS011;10207;50.942;6.900;2023-10-08T02:30:23;8.00;;;3.42;;
20095;SDS011;10207;50.942;6.900;2023-10-08T02:32:49;9.35;;;2.75;;
20095;SDS011;10207;50.942;6.900;2023-10-08T02:35:17;10.05;;;3.58;;
20095;SDS011;10207;50.942;6.900;2023-10-08T02:37:44;8.82;;;3.15;;
20095;SDS011;10207;50.942;6.900;2023-10-08T02:40:11;13.00;;;3.70;;
20095;SDS011;10207;50.942;6.900;2023-10-08T02:42:47;10.30;;;3.22;;
20095;SDS011;10207;50.942;6.900;2023-10-08T02:45:14;9.45;;;2.92;;
20095;SDS011;10207;50.942;6.900;2023-10-08T02:47:42;8.40;;;3.47;;
20095;SDS011;10207;50.942;6.900;2023-10-08T02:50:11;9.90;;;3.05;;
20095;SDS011;10207;50.942;6.900;2023-10-08T02:52:37;6.57;;;3.60;;
20095;SDS011;10207;50.942;6.900;2023-10-08T02:55:03;10.45;;;3.78;;
20095;SDS011;10207;50.942;6.900;2023-10-08T02:57:30;10.02;;;3.40;;
20095;SDS011;10207;50.942;6.900;2023-10-08T02:59:57;5.55;;;2.88;;
20095;SDS011;10207;50.942;6.900;2023-10-08T03:02:24;10.43;;;3.53;;
20095;SDS011;10207;50.942;6.900;2023-10-08T03:04:51;7.85;;;3.28;;
20095;SDS011;10207;50.942;6.900;2023-10-08T03:07:18;9.75;;;3.00;;
20095;SDS011;10207;50.942;6.900;2023-10-08T03:09:50;7.65;;;2.83;;
20095;SDS011;10207;50.942;6.900;2023-10-08T03:12:16;8.05;;;3.20;;
20095;SDS011;10207;50.942;6.900;2023-10-08T03:14:43;7.03;;;3.47;;
20095;SDS011;10207;50.942;6.900;2023-10-08T03:17:38;7.95;;;3.50;;
20095;SDS011;10207;50.942;6.900;2023-10-08T03:20:17;9.63;;;3.25;;
20095;SDS011;10207;50.942;6.900;2023-10-08T03:23:16;8.50;;;2.92;;
20095;SDS011;10207;50.942;6.900;2023-10-08T03:25:52;11.90;;;3.13;;
20095;SDS011;10207;50.942;6.900;2023-10-08T03:28:27;10.70;;;2.80;;
20095;SDS011;10207;50.942;6.900;2023-10-08T03:30:55;6.10;;;2.88;;
20095;SDS011;10207;50.942;6.900;2023-10-08T03:33:31;9.32;;;3.33;;
20095;SDS011;10207;50.942;6.900;2023-10-08T03:36:03;7.53;;;2.97;;
20095;SDS011;10207;50.942;6.900;2023-10-08T03:38:48;9.77;;;2.88;;
20095;SDS011;10207;50.942;6.900;2023-10-08T03:41:18;11.07;;;3.58;;
20095;SDS011;10207;50.942;6.900;2023-10-08T03:43:44;8.02;;;3.70;;
20095;SDS011;10207;50.942;6.900;2023-10-08T03:46:28;9.40;;;3.03;;
20095;SDS011;10207;50.942;6.900;2023-10-08T03:48:54;7.22;;;3.40;;
20095;SDS011;10207;50.942;6.900;2023-10-08T03:51:23;9.05;;;3.10;;
20095;SDS011;10207;50.942;6.900;2023-10-08T03:53:53;7.55;;;3.03;;
20095;SDS011;10207;50.942;6.900;2023-10-08T03:56:41;8.52;;;3.35;;
20095;SDS011;10207;50.942;6.900;2023-10-08T03:59:14;10.77;;;3.65;;
20095;SDS011;10207;50.942;6.900;2023-10-08T04:01:46;10.35;;;3.60;;
20095;SDS011;10207;50.942;6.900;2023-10-08T04:04:14;6.70;;;3.47;;
20095;SDS011;10207;50.942;6.900;2023-10-08T04:06:41;8.02;;;3.03;;
20095;SDS011;10207;50.942;6.900;2023-10-08T04:09:14;9.85;;;3.13;;
20095;SDS011;10207;50.942;6.900;2023-10-08T04:11:46;9.85;;;3.08;;
20095;SDS011;10207;50.942;6.900;2023-10-08T04:14:23;11.45;;;3.42;;
20095;SDS011;10207;50.942;6.900;2023-10-08T04:16:49;9.05;;;3.38;;
20095;SDS011;10207;50.942;6.900;2023-10-08T04:19:19;6.88;;;2.90;;
20095;SDS011;10207;50.942;6.900;2023-10-08T04:21:47;8.25;;;2.88;;
20095;SDS011;10207;50.942;6.900;2023-10-08T04:24:23;9.40;;;3.22;;
20095;SDS011;10207;50.942;6.900;2023-10-08T04:27:01;14.65;;;3.92;;
20095;SDS011;10207;50.942;6.900;2023-10-08T04:29:33;8.23;;;4.07;;
20095;SDS011;10207;50.942;6.900;2023-10-08T04:32:02;11.15;;;3.63;;
20095;SDS011;10207;50.942;6.900;2023-10-08T04:34:33;10.40;;;3.88;;
20095;SDS011;10207;50.942;6.900;2023-10-08T04:36:59;8.70;;;3.00;;
20095;SDS011;10207;50.942;6.900;2023-10-08T04:39:30;12.40;;;3.50;;
20095;SDS011;10207;50.942;6.900;2023-10-08T04:41:59;6.13;;;3.10;;
20095;SDS011;10207;50.942;6.900;2023-10-08T04:44:31;5.53;;;2.85;;
20095;SDS011;10207;50.942;6.900;2023-10-08T04:46:57;8.82;;;3.13;;
20095;SDS011;10207;50.942;6.900;2023-10-08T04:49:30;10.48;;;3.92;;
20095;SDS011;10207;50.942;6.900;2023-10-08T04:52:01;10.40;;;3.22;;
20095;SDS011;10207;50.942;6.900;2023-10-08T04:54:48;6.95;;;3.03;;
20095;SDS011;10207;50.942;6.900;2023-10-08T04:57:31;8.52;;;3.40;;
20095;SDS011;10207;50.942;6.900;2023-10-08T04:59:59;8.35;;;3.10;;
20095;SDS011;10207;50.942;6.900;2023-10-08T05:02:26;7.70;;;3.20;;
20095;SDS011;10207;50.942;6.900;2023-10-08T05:05:02;7.43;;;3.70;;
20095;SDS011;10207;50.942;6.900;2023-10-08T05:07:37;6.78;;;3.20;;
20095;SDS011;10207;50.942;6.900;2023-10-08T05:10:25;6.72;;;2.83;;
20095;SDS011;10207;50.942;6.900;2023-10-08T05:12:52;7.88;;;3.42;;
20095;SDS011;10207;50.942;6.900;2023-10-08T05:15:30;7.22;;;3.42;;
20095;SDS011;10207;50.942;6.900;2023-10-08T05:18:03;10.77;;;3.40;;
20095;SDS011;10207;50.942;6.900;2023-10-08T05:20:38;8.45;;;3.65;;
20095;SDS011;10207;50.942;6.900;2023-10-08T05:23:17;7.10;;;3.22;;
20095;SDS011;10207;50.942;6.900;2023-10-08T05:26:06;5.30;;;2.90;;
20095;SDS011;10207;50.942;6.900;2023-10-08T05:28:32;8.65;;;3.58;;
20095;SDS011;10207;50.942;6.900;2023-10-08T05:31:07;9.48;;;3.72;;
20095;SDS011;10207;50.942;6.900;2023-10-08T05:33:42;7.25;;;3.72;;
20095;SDS011;10207;50.942;6.900;2023-10-08T05:36:27;13.38;;;4.63;;
20095;SDS011;10207;50.942;6.900;2023-10-08T05:39:00;12.05;;;3.30;;
20095;SDS011;10207;50.942;6.900;2023-10-08T05:41:27;7.03;;;2.95;;
20095;SDS011;10207;50.942;6.900;2023-10-08T05:44:19;13.63;;;4.93;;
20095;SDS011;10207;50.942;6.900;2023-10-08T05:46:46;10.80;;;3.17;;
20095;SDS011;10207;50.942;6.900;2023-10-08T05:49:32;10.07;;;3.60;;
20095;SDS011;10207;50.942;6.900;2023-10-08T05:51:58;8.35;;;3.33;;
20095;SDS011;10207;50.942;6.900;2023-10-08T05:54:31;7.68;;;3.40;;
20095;SDS011;10207;50.942;6.900;2023-10-08T05:56:58;10.05;;;3.50;;
20095;SDS011;10207;50.942;6.900;2023-10-08T05:59:40;17.40;;;4.63;;
20095;SDS011;10207;50.942;6.900;2023-10-08T06:02:19;10.45;;;3.67;;
20095;SDS011;10207;50.942;6.900;2023-10-08T06:04:54;11.25;;;3.60;;
20095;SDS011;10207;50.942;6.900;2023-10-08T06:10:22;10.40;;;3.72;;
20095;SDS011;10207;50.942;6.900;2023-10-08T06:13:11;9.93;;;3.88;;
20095;SDS011;10207;50.942;6.900;2023-10-08T06:16:09;7.85;;;3.55;;
20095;SDS011;10207;50.942;6.900;2023-10-08T06:18:35;9.35;;;4.00;;
20095;SDS011;10207;50.942;6.900;2023-10-08T06:21:02;9.80;;;3.10;;
20095;SDS011;10207;50.942;6.900;2023-10-08T06:23:40;8.30;;;3.83;;
20095;SDS011;10207;50.942;6.900;2023-10-08T06:26:07;10.02;;;3.92;;
20095;SDS011;10207;50.942;6.900;2023-10-08T06:28:39;9.95;;;4.05;;
20095;SDS011;10207;50.942;6.900;2023-10-08T06:31:06;9.13;;;4.45;;
20095;SDS011;10207;50.942;6.900;2023-10-08T06:33:42;8.15;;;3.53;;
20095;SDS011;10207;50.942;6.900;2023-10-08T06:36:09;7.45;;;3.72;;
20095;SDS011;10207;50.942;6.900;2023-10-08T06:38:38;7.78;;;2.85;;
20095;SDS011;10207;50.942;6.900;2023-10-08T06:41:04;9.98;;;3.92;;
20095;SDS011;10207;50.942;6.900;2023-10-08T06:43:40;10.43;;;3.70;;
20095;SDS011;10207;50.942;6.900;2023-10-08T06:46:11;5.90;;;3.25;;
20095;SDS011;10207;50.942;6.900;2023-10-08T06:48:40;8.05;;;3.58;;
20095;SDS011;10207;50.942;6.900;2023-10-08T06:51:09;11.32;;;3.53;;
20095;SDS011;10207;50.942;6.900;2023-10-08T06:53:44;7.72;;;3.67;;
20095;SDS011;10207;50.942;6.900;2023-10-08T06:56:13;8.70;;;3.05;;
20095;SDS011;10207;50.942;6.900;2023-10-08T06:58:39;11.77;;;3.60;;
20095;SDS011;10207;50.942;6.900;2023-10-08T07:01:08;8.23;;;3.47;;
20095;SDS011;10207;50.942;6.900;2023-10-08T07:03:38;9.85;;;3.63;;
20095;SDS011;10207;50.942;6.900;2023-10-08T07:06:04;12.63;;;3.92;;
20095;SDS011;10207;50.942;6.900;2023-10-08T07:08:42;6.85;;;3.03;;
20095;SDS011;10207;50.942;6.900;2023-10-08T07:11:09;9.38;;;3.67;;
20095;SDS011;10207;50.942;6.900;2023-10-08T07:13:37;8.32;;;3.15;;
20095;SDS011;10207;50.942;6.900;2023-10-08T07:16:05;8.73;;;3.83;;
20095;SDS011;10207;50.942;6.900;2023-10-08T07:18:33;14.40;;;3.75;;
20095;SDS011;10207;50.942;6.900;2023-10-08T07:20:59;12.25;;;3.53;;
20095;SDS011;10207;50.942;6.900;2023-10-08T07:23:37;8.40;;;3.75;;
20095;SDS011;10207;50.942;6.900;2023-10-08T07:26:28;9.07;;;3.45;;
20095;SDS011;10207;50.942;6.900;2023-10-08T07:29:03;11.07;;;5.05;;
20095;SDS011;10207;50.942;6.900;2023-10-08T07:31:37;10.07;;;3.92;;
20095;SDS011;10207;50.942;6.900;2023-10-08T07:34:07;12.95;;;4.07;;
20095;SDS011;10207;50.942;6.900;2023-10-08T07:36:42;11.93;;;4.25;;
20095;SDS011;10207;50.942;6.900;2023-10-08T07:39:09;8.75;;;3.83;;
20095;SDS011;10207;50.942;6.900;2023-10-08T07:41:48;11.10;;;3.60;;
20095;SDS011;10207;50.942;6.900;2023-10-08T07:44:15;9.63;;;3.53;;
20095;SDS011;10207;50.942;6.900;2023-10-08T07:46:41;10.90;;;3.83;;
20095;SDS011;10207;50.942;6.900;2023-10-08T07:49:07;7.78;;;3.83;;
20095;SDS011;10207;50.942;6.900;2023-10-08T07:51:33;7.25;;;3.28;;
20095;SDS011;10207;50.942;6.900;2023-10-08T07:54:00;10.82;;;3.72;;
20095;SDS011;10207;50.942;6.900;2023-10-08T07:56:26;8.38;;;4.28;;
20095;SDS011;10207;50.942;6.900;2023-10-08T07:58:52;9.27;;;3.72;;
20095;SDS011;10207;50.942;6.900;2023-10-08T08:01:22;12.00;;;4.30;;
20095;SDS011;10207;50.942;6.900;2023-10-08T08:03:50;12.07;;;4.43;;
20095;SDS011;10207;50.942;6.900;2023-10-08T08:06:16;7.97;;;4.13;;
20095;SDS011;10207;50.942;6.900;2023-10-08T08:08:42;14.13;;;3.78;;
20095;SDS011;10207;50.942;6.900;2023-10-08T08:11:10;10.23;;;3.67;;
20095;SDS011;10207;50.942;6.900;2023-10-08T08:13:39;10.57;;;3.75;;
20095;SDS011;10207;50.942;6.900;2023-10-08T08:16:08;10.55;;;4.20;;
20095;SDS011;10207;50.942;6.900;2023-10-08T08:18:48;8.68;;;3.42;;
20095;SDS011;10207;50.942;6.900;2023-10-08T08:21:25;11.27;;;4.63;;
20095;SDS011;10207;50.942;6.900;2023-10-08T08:23:51;10.52;;;4.28;;
20095;SDS011;10207;50.942;6.900;2023-10-08T08:26:19;10.88;;;3.75;;
20095;SDS011;10207;50.942;6.900;2023-10-08T08:28:58;15.40;;;4.78;;
20095;SDS011;10207;50.942;6.900;2023-10-08T08:31:25;18.17;;;4.57;;
20095;SDS011;10207;50.942;6.900;2023-10-08T08:33:52;8.27;;;4.00;;
20095;SDS011;10207;50.942;6.900;2023-10-08T08:36:22;11.85;;;4.32;;
20095;SDS011;10207;50.942;6.900;2023-10-08T08:38:48;12.82;;;4.03;;
20095;SDS011;10207;50.942;6.900;2023-10-08T08:41:14;13.13;;;4.93;;
20095;SDS011;10207;50.942;6.900;2023-10-08T08:43:44;10.50;;;4.10;;
20095;SDS011;10207;50.942;6.900;2023-10-08T08:46:12;8.63;;;3.67;;
20095;SDS011;10207;50.942;6.900;2023-10-08T08:48:42;13.43;;;4.22;;
20095;SDS011;10207;50.942;6.900;2023-10-08T08:51:08;7.85;;;4.10;;
20095;SDS011;10207;50.942;6.900;2023-10-08T08:53:35;9.93;;;4.25;;
20095;SDS011;10207;50.942;6.900;2023-10-08T08:56:02;10.02;;;3.83;;
20095;SDS011;10207;50.942;6.900;2023-10-08T08:58:31;12.35;;;5.22;;
20095;SDS011;10207;50.942;6.900;2023-10-08T09:00:58;8.82;;;4.00;;
20095;SDS011;10207;50.942;6.900;2023-10-08T09:03:25;13.05;;;4.20;;
20095;SDS011;10207;50.942;6.900;2023-10-08T09:05:57;12.45;;;4.10;;
20095;SDS011;10207;50.942;6.900;2023-10-08T09:08:25;14.85;;;3.95;;
20095;SDS011;10207;50.942;6.900;2023-10-08T09:10:52;12.70;;;4.57;;
20095;SDS011;10207;50.942;6.900;2023-10-08T09:13:26;9.73;;;3.90;;
20095;SDS011;10207;50.942;6.900;2023-10-08T09:16:11;11.27;;;4.05;;
20095;SDS011;10207;50.942;6.900;2023-10-08T09:18:37;13.15;;;4.63;;
20095;SDS011;10207;50.942;6.900;2023-10-08T09:21:10;11.60;;;3.78;;
20095;SDS011;10207;50.942;6.900;2023-10-08T09:23:42;13.27;;;4.18;;
20095;SDS011;10207;50.942;6.900;2023-10-08T09:26:09;13.10;;;4.30;;
20095;SDS011;10207;50.942;6.900;2023-10-08T09:28:37;15.18;;;5.05;;
20095;SDS011;10207;50.942;6.900;2023-10-08T09:31:04;10.60;;;4.00;;
20095;SDS011;10207;50.942;6.900;2023-10-08T09:33:32;16.15;;;4.38;;
20095;SDS011;10207;50.942;6.900;2023-10-08T09:35:58;18.67;;;5.80;;
20095;SDS011;10207;50.942;6.900;2023-10-08T09:38:28;16.80;;;5.38;;
20095;SDS011;10207;50.942;6.900;2023-10-08T09:40:55;26.73;;;6.82;;
20095;SDS011;10207;50.942;6.900;2023-10-08T09:43:22;17.33;;;6.25;;
20095;SDS011;10207;50.942;6.900;2023-10-08T09:46:13;26.10;;;7.18;;
20095;SDS011;10207;50.942;6.900;2023-10-08T09:48:37;19.85;;;5.93;;
20095;SDS011;10207;50.942;6.900;2023-10-08T09:51:03;16.77;;;5.40;;
20095;SDS011;10207;50.942;6.900;2023-10-08T09:53:36;19.23;;;5.57;;
20095;SDS011;10207;50.942;6.900;2023-10-08T09:56:07;17.98;;;6.03;;
20095;SDS011;10207;50.942;6.900;2023-10-08T09:58:39;27.88;;;6.90;;
20095;SDS011;10207;50.942;6.900;2023-10-08T10:01:07;18.60;;;5.78;;
20095;SDS011;10207;50.942;6.900;2023-10-08T10:03:33;16.10;;;5.93;;
20095;SDS011;10207;50.942;6.900;2023-10-08T10:06:02;23.45;;;5.80;;
20095;SDS011;10207;50.942;6.900;2023-10-08T10:08:28;14.02;;;5.05;;
20095;SDS011;10207;50.942;6.900;2023-10-08T10:11:01;19.55;;;5.47;;
20095;SDS011;10207;50.942;6.900;2023-10-08T10:13:28;16.50;;;5.35;;
20095;SDS011;10207;50.942;6.900;2023-10-08T10:15:54;18.50;;;6.00;;
20095;SDS011;10207;50.942;6.900;2023-10-08T10:20:59;18.17;;;6.30;;
20095;SDS011;10207;50.942;6.900;2023-10-08T10:26:20;16.13;;;6.75;;
20095;SDS011;10207;50.942;6.900;2023-10-08T10:31:33;13.23;;;5.28;;
20095;SDS011;10207;50.942;6.900;2023-10-08T10:34:05;13.48;;;6.10;;
20095;SDS011;10207;50.942;6.900;2023-10-08T10:36:37;16.95;;;6.30;;
20095;SDS011;10207;50.942;6.900;2023-10-08T10:39:09;16.55;;;5.68;;
20095;SDS011;10207;50.942;6.900;2023-10-08T10:41:55;24.95;;;7.22;;
20095;SDS011;10207;50.942;6.900;2023-10-08T10:44:27;19.27;;;6.88;;
20095;SDS011;10207;50.942;6.900;2023-10-08T10:46:55;26.58;;;7.18;;
20095;SDS011;10207;50.942;6.900;2023-10-08T10:49:40;16.42;;;6.55;;
20095;SDS011;10207;50.942;6.900;2023-10-08T10:52:25;18.08;;;7.03;;
20095;SDS011;10207;50.942;6.900;2023-10-08T10:54:59;16.55;;;6.75;;
20095;SDS011;10207;50.942;6.900;2023-10-08T10:57:26;21.05;;;5.78;;
20095;SDS011;10207;50.942;6.900;2023-10-08T11:00:03;17.15;;;6.20;;
20095;SDS011;10207;50.942;6.900;2023-10-08T11:02:44;16.88;;;6.30;;
20095;SDS011;10207;50.942;6.900;2023-10-08T11:05:15;22.60;;;6.85;;
20095;SDS011;10207;50.942;6.900;2023-10-08T11:07:48;17.13;;;6.63;;
20095;SDS011;10207;50.942;6.900;2023-10-08T11:10:14;19.27;;;8.25;;
20095;SDS011;10207;50.942;6.900;2023-10-08T11:12:42;14.13;;;5.57;;
20095;SDS011;10207;50.942;6.900;2023-10-08T11:15:18;21.10;;;6.30;;
20095;SDS011;10207;50.942;6.900;2023-10-08T11:17:44;18.35;;;7.57;;
20095;SDS011;10207;50.942;6.900;2023-10-08T11:20:28;23.65;;;7.85;;
20095;SDS011;10207;50.942;6.900;2023-10-08T11:22:54;21.85;;;6.88;;
20095;SDS011;10207;50.942;6.900;2023-10-08T11:25:21;26.20;;;7.53;;
20095;SDS011;10207;50.942;6.900;2023-10-08T11:27:50;17.30;;;6.75;;
20095;SDS011;10207;50.942;6.900;2023-10-08T11:30:17;18.50;;;6.80;;
20095;SDS011;10207;50.942;6.900;2023-10-08T11:32:43;19.58;;;6.32;;
20095;SDS011;10207;50.942;6.900;2023-10-08T11:35:16;15.38;;;6.63;;
20095;SDS011;10207;50.942;6.900;2023-10-08T11:37:46;19.63;;;7.18;;
20095;SDS011;10207;50.942;6.900;2023-10-08T11:40:23;23.55;;;6.72;;
20095;SDS011;10207;50.942;6.900;2023-10-08T11:42:57;22.08;;;7.72;;
20095;SDS011;10207;50.942;6.900;2023-10-08T11:45:26;24.45;;;8.55;;
20095;SDS011;10207;50.942;6.900;2023-10-08T11:47:53;24.52;;;9.05;;
20095;SDS011;10207;50.942;6.900;2023-10-08T11:50:25;21.95;;;8.45;;
20095;SDS011;10207;50.942;6.900;2023-10-08T11:53:05;20.05;;;7.35;;
20095;SDS011;10207;50.942;6.900;2023-10-08T11:55:32;22.38;;;9.50;;
20095;SDS011;10207;50.942;6.900;2023-10-08T11:58:05;22.55;;;9.70;;
20095;SDS011;10207;50.942;6.900;2023-10-08T12:00:39;21.58;;;9.45;;
20095;SDS011;10207;50.942;6.900;2023-10-08T12:03:18;16.85;;;9.48;;
20095;SDS011;10207;50.942;6.900;2023-10-08T12:05:47;21.75;;;9.77;;
20095;SDS011;10207;50.942;6.900;2023-10-08T12:08:14;21.92;;;10.00;;
20095;SDS011;10207;50.942;6.900;2023-10-08T12:10:42;23.95;;;9.70;;
20095;SDS011;10207;50.942;6.900;2023-10-08T12:13:09;21.02;;;9.23;;
20095;SDS011;10207;50.942;6.900;2023-10-08T12:15:36;19.35;;;8.85;;
20095;SDS011;10207;50.942;6.900;2023-10-08T12:18:07;19.90;;;8.73;;
20095;SDS011;10207;50.942;6.900;2023-10-08T12:20:51;20.88;;;9.20;;
20095;SDS011;10207;50.942;6.900;2023-10-08T12:23:19;20.23;;;9.43;;
20095;SDS011;10207;50.942;6.900;2023-10-08T12:25:55;17.85;;;9.68;;
20095;SDS011;10207;50.942;6.900;2023-10-08T12:28:25;28.77;;;10.13;;
20095;SDS011;10207;50.942;6.900;2023-10-08T12:30:54;20.40;;;9.57;;
20095;SDS011;10207;50.942;6.900;2023-10-08T12:33:22;23.30;;;9.43;;
20095;SDS011;10207;50.942;6.900;2023-10-08T12:35:50;19.23;;;9.52;;
20095;SDS011;10207;50.942;6.900;2023-10-08T12:38:19;21.98;;;9.38;;
20095;SDS011;10207;50.942;6.900;2023-10-08T12:40:51;29.20;;;9.20;;
20095;SDS011;10207;50.942;6.900;2023-10-08T12:43:20;24.00;;;9.45;;
20095;SDS011;10207;50.942;6.900;2023-10-08T12:45:49;21.83;;;9.82;;
20095;SDS011;10207;50.942;6.900;2023-10-08T12:48:19;25.50;;;9.55;;
20095;SDS011;10207;50.942;6.900;2023-10-08T12:50:45;25.88;;;9.20;;
20095;SDS011;10207;50.942;6.900;2023-10-08T12:53:22;18.55;;;8.65;;
20095;SDS011;10207;50.942;6.900;2023-10-08T12:56:09;23.35;;;11.55;;
20095;SDS011;10207;50.942;6.900;2023-10-08T12:58:42;24.27;;;9.93;;
20095;SDS011;10207;50.942;6.900;2023-10-08T13:01:10;23.30;;;10.05;;
20095;SDS011;10207;50.942;6.900;2023-10-08T13:03:36;22.65;;;9.90;;
20095;SDS011;10207;50.942;6.900;2023-10-08T13:06:07;22.25;;;9.73;;
20095;SDS011;10207;50.942;6.900;2023-10-08T13:08:37;22.73;;;9.95;;
20095;SDS011;10207;50.942;6.900;2023-10-08T13:11:02;24.15;;;10.45;;
20095;SDS011;10207;50.942;6.900;2023-10-08T13:13:30;26.08;;;10.43;;
20095;SDS011;10207;50.942;6.900;2023-10-08T13:15:56;24.77;;;9.82;;
20095;SDS011;10207;50.942;6.900;2023-10-08T13:18:22;28.92;;;10.88;;
20095;SDS011;10207;50.942;6.900;2023-10-08T13:20:51;20.17;;;10.40;;
20095;SDS011;10207;50.942;6.900;2023-10-08T13:23:17;21.08;;;10.27;;
20095;SDS011;10207;50.942;6.900;2023-10-08T13:25:52;27.23;;;11.10;;
20095;SDS011;10207;50.942;6.900;2023-10-08T13:28:21;22.25;;;10.80;;
20095;SDS011;10207;50.942;6.900;2023-10-08T13:30:48;24.25;;;11.32;;
20095;SDS011;10207;50.942;6.900;2023-10-08T13:33:21;21.23;;;10.15;;
20095;SDS011;10207;50.942;6.900;2023-10-08T13:35:51;22.98;;;10.70;;
20095;SDS011;10207;50.942;6.900;2023-10-08T13:38:17;23.80;;;10.60;;
20095;SDS011;10207;50.942;6.900;2023-10-08T13:40:46;23.83;;;10.02;;
20095;SDS011;10207;50.942;6.900;2023-10-08T13:43:31;33.17;;;11.30;;
20095;SDS011;10207;50.942;6.900;2023-10-08T13:48:30;21.00;;;10.73;;
20095;SDS011;10207;50.942;6.900;2023-10-08T13:50:59;25.08;;;10.27;;
20095;SDS011;10207;50.942;6.900;2023-10-08T13:53:25;23.70;;;10.25;;
20095;SDS011;10207;50.942;6.900;2023-10-08T13:56:01;23.90;;;10.70;;
20095;SDS011;10207;50.942;6.900;2023-10-08T13:58:28;25.55;;;9.05;;
20095;SDS011;10207;50.942;6.900;2023-10-08T14:00:56;32.22;;;11.18;;
20095;SDS011;10207;50.942;6.900;2023-10-08T14:03:22;20.77;;;9.23;;
20095;SDS011;10207;50.942;6.900;2023-10-08T14:05:48;24.92;;;10.05;;
20095;SDS011;10207;50.942;6.900;2023-10-08T14:08:19;23.48;;;9.27;;
20095;SDS011;10207;50.942;6.900;2023-10-08T14:10:45;23.33;;;10.57;;
20095;SDS011;10207;50.942;6.900;2023-10-08T14:13:14;27.08;;;9.30;;
20095;SDS011;10207;50.942;6.900;2023-10-08T14:15:45;19.27;;;9.40;;
20095;SDS011;10207;50.942;6.900;2023-10-08T14:18:14;24.35;;;10.63;;
20095;SDS011;10207;50.942;6.900;2023-10-08T14:20:43;23.25;;;9.30;;
20095;SDS011;10207;50.942;6.900;2023-10-08T14:23:12;21.55;;;10.27;;
20095;SDS011;10207;50.942;6.900;2023-10-08T14:25:40;24.33;;;10.07;;
20095;SDS011;10207;50.942;6.900;2023-10-08T14:28:11;27.48;;;11.00;;
20095;SDS011;10207;50.942;6.900;2023-10-08T14:30:50;23.77;;;11.23;;
20095;SDS011;10207;50.942;6.900;2023-10-08T14:33:21;21.33;;;9.80;;
20095;SDS011;10207;50.942;6.900;2023-10-08T14:35:52;22.23;;;9.80;;
20095;SDS011;10207;50.942;6.900;2023-10-08T14:38:37;24.60;;;9.65;;
20095;SDS011;10207;50.942;6.900;2023-10-08T14:41:21;26.17;;;10.02;;
20095;SDS011;10207;50.942;6.900;2023-10-08T14:44:06;21.90;;;10.48;;
20095;SDS011;10207;50.942;6.900;2023-10-08T14:46:32;25.92;;;9.73;;
20095;SDS011;10207;50.942;6.900;2023-10-08T14:49:00;21.02;;;10.48;;
20095;SDS011;10207;50.942;6.900;2023-10-08T14:51:27;23.88;;;9.52;;
20095;SDS011;10207;50.942;6.900;2023-10-08T14:53:55;21.85;;;10.02;;
20095;SDS011;10207;50.942;6.900;2023-10-08T14:56:22;24.65;;;10.23;;
20095;SDS011;10207;50.942;6.900;2023-10-08T14:58:49;26.20;;;9.90;;
20095;SDS011;10207;50.942;6.900;2023-10-08T15:01:15;21.13;;;10.88;;
20095;SDS011;10207;50.942;6.900;2023-10-08T15:03:41;23.45;;;10.07;;
20095;SDS011;10207;50.942;6.900;2023-10-08T15:06:07;26.85;;;10.60;;
20095;SDS011;10207;50.942;6.900;2023-10-08T15:08:33;26.20;;;10.23;;
20095;SDS011;10207;50.942;6.900;2023-10-08T15:10:59;21.90;;;9.50;;
20095;SDS011;10207;50.942;6.900;2023-10-08T15:13:26;23.02;;;9.55;;